sensor_id;sensor_type;location;lat;lon;timestamp;temperature;humidity
22416;DHT22;12204;50.600;4.608;2023-07-13T00:02:33;27.30;61.10
22416;DHT22;12204;50.600;4.608;2023-07-13T00:07:38;27.30;61.20
22416;DHT22;12204;50.600;4.608;2023-07-13T00:12:42;27.30;61.30
22416;DHT22;12204;50.600;4.608;2023-07-13T00:17:45;27.30;61.30
22416;DHT22;12204;50.600;4.608;2023-07-13T00:22:51;27.30;61.30
22416;DHT22;12204;50.600;4.608;2023-07-13T00:27:56;27.30;61.30
22416;DHT22;12204;50.600;4.608;2023-07-13T00:32:59;27.30;61.40
22416;DHT22;12204;50.600;4.608;2023-07-13T00:38:20;27.30;61.40
22416;DHT22;12204;50.600;4.608;2023-07-13T00:43:26;27.30;61.50
22416;DHT22;12204;50.600;4.608;2023-07-13T00:48:33;27.30;61.50
22416;DHT22;12204;50.600;4.608;2023-07-13T00:53:39;27.20;61.40
22416;DHT22;12204;50.600;4.608;2023-07-13T00:58:43;27.20;61.50
22416;DHT22;12204;50.600;4.608;2023-07-13T01:03:46;27.20;61.60
22416;DHT22;12204;50.600;4.608;2023-07-13T01:08:51;27.20;61.50
22416;DHT22;12204;50.600;4.608;2023-07-13T01:13:55;27.20;61.70
22416;DHT22;12204;50.600;4.608;2023-07-13T01:18:58;27.20;61.70
22416;DHT22;12204;50.600;4.608;2023-07-13T01:24:05;27.20;61.60
22416;DHT22;12204;50.600;4.608;2023-07-13T01:29:08;27.20;61.80
22416;DHT22;12204;50.600;4.608;2023-07-13T01:34:13;27.20;62.00
22416;DHT22;12204;50.600;4.608;2023-07-13T01:39:19;27.20;61.90
22416;DHT22;12204;50.600;4.608;2023-07-13T01:44:23;27.20;61.90
22416;DHT22;12204;50.600;4.608;2023-07-13T01:49:27;27.20;62.00
22416;DHT22;12204;50.600;4.608;2023-07-13T01:54:32;27.20;62.00
22416;DHT22;12204;50.600;4.608;2023-07-13T01:59:36;27.20;62.00
22416;DHT22;12204;50.600;4.608;2023-07-13T02:04:41;27.20;62.00
22416;DHT22;12204;50.600;4.608;2023-07-13T02:09:46;27.20;62.20
22416;DHT22;12204;50.600;4.608;2023-07-13T02:14:49;27.20;62.10
22416;DHT22;12204;50.600;4.608;2023-07-13T02:19:53;27.10;62.10
22416;DHT22;12204;50.600;4.608;2023-07-13T02:24:58;27.10;62.10
22416;DHT22;12204;50.600;4.608;2023-07-13T02:30:01;27.10;62.10
22416;DHT22;12204;50.600;4.608;2023-07-13T02:35:06;27.10;62.10
22416;DHT22;12204;50.600;4.608;2023-07-13T02:40:13;27.10;62.20
22416;DHT22;12204;50.600;4.608;2023-07-13T02:45:17;27.10;62.30
22416;DHT22;12204;50.600;4.608;2023-07-13T02:50:21;27.10;62.20
22416;DHT22;12204;50.600;4.608;2023-07-13T02:55:26;27.10;62.30
22416;DHT22;12204;50.600;4.608;2023-07-13T03:00:29;27.10;62.50
22416;DHT22;12204;50.600;4.608;2023-07-13T03:05:34;27.00;62.30
22416;DHT22;12204;50.600;4.608;2023-07-13T03:10:39;27.10;62.40
22416;DHT22;12204;50.600;4.608;2023-07-13T03:15:48;27.10;62.50
22416;DHT22;12204;50.600;4.608;2023-07-13T03:20:51;27.10;62.50
22416;DHT22;12204;50.600;4.608;2023-07-13T03:26:06;27.10;62.50
22416;DHT22;12204;50.600;4.608;2023-07-13T03:31:17;27.00;62.50
22416;DHT22;12204;50.600;4.608;2023-07-13T03:36:24;27.00;62.50
22416;DHT22;12204;50.600;4.608;2023-07-13T03:41:34;27.00;62.50
22416;DHT22;12204;50.600;4.608;2023-07-13T03:46:37;27.00;62.60
22416;DHT22;12204;50.600;4.608;2023-07-13T03:51:42;27.00;62.50
22416;DHT22;12204;50.600;4.608;2023-07-13T03:56:47;27.00;62.60
22416;DHT22;12204;50.600;4.608;2023-07-13T04:01:52;27.00;62.60
22416;DHT22;12204;50.600;4.608;2023-07-13T04:06:57;27.00;62.70
22416;DHT22;12204;50.600;4.608;2023-07-13T04:12:03;27.00;62.70
22416;DHT22;12204;50.600;4.608;2023-07-13T04:17:07;27.00;62.70
22416;DHT22;12204;50.600;4.608;2023-07-13T04:22:11;27.00;62.70
22416;DHT22;12204;50.600;4.608;2023-07-13T04:27:16;27.00;62.70
22416;DHT22;12204;50.600;4.608;2023-07-13T04:32:19;27.00;62.70
22416;DHT22;12204;50.600;4.608;2023-07-13T04:37:23;27.00;62.70
22416;DHT22;12204;50.600;4.608;2023-07-13T04:42:27;26.90;62.70
22416;DHT22;12204;50.600;4.608;2023-07-13T04:47:31;26.90;62.70
22416;DHT22;12204;50.600;4.608;2023-07-13T04:52:35;27.00;62.70
22416;DHT22;12204;50.600;4.608;2023-07-13T04:57:40;27.00;62.70
22416;DHT22;12204;50.600;4.608;2023-07-13T05:02:44;26.90;62.70
22416;DHT22;12204;50.600;4.608;2023-07-13T05:07:48;26.90;62.70
22416;DHT22;12204;50.600;4.608;2023-07-13T05:12:53;26.90;62.70
22416;DHT22;12204;50.600;4.608;2023-07-13T05:17:56;26.90;62.70
22416;DHT22;12204;50.600;4.608;2023-07-13T05:23:00;26.90;62.80
22416;DHT22;12204;50.600;4.608;2023-07-13T05:28:05;26.90;62.60
22416;DHT22;12204;50.600;4.608;2023-07-13T05:33:08;26.90;62.60
22416;DHT22;12204;50.600;4.608;2023-07-13T05:38:12;26.90;62.70
22416;DHT22;12204;50.600;4.608;2023-07-13T05:43:17;26.90;62.50
22416;DHT22;12204;50.600;4.608;2023-07-13T05:48:21;26.90;62.50
22416;DHT22;12204;50.600;4.608;2023-07-13T05:53:24;26.90;62.50
22416;DHT22;12204;50.600;4.608;2023-07-13T05:58:29;26.90;62.50
22416;DHT22;12204;50.600;4.608;2023-07-13T06:03:33;26.90;62.50
22416;DHT22;12204;50.600;4.608;2023-07-13T06:08:36;26.90;62.50
22416;DHT22;12204;50.600;4.608;2023-07-13T06:13:42;26.90;62.50
22416;DHT22;12204;50.600;4.608;2023-07-13T06:18:45;26.90;62.40
22416;DHT22;12204;50.600;4.608;2023-07-13T06:23:50;26.90;62.50
22416;DHT22;12204;50.600;4.608;2023-07-13T06:28:56;26.90;62.50
22416;DHT22;12204;50.600;4.608;2023-07-13T06:33:59;26.90;62.40
22416;DHT22;12204;50.600;4.608;2023-07-13T06:39:06;26.90;62.50
22416;DHT22;12204;50.600;4.608;2023-07-13T06:44:11;26.90;62.40
22416;DHT22;12204;50.600;4.608;2023-07-13T06:49:15;26.90;62.30
22416;DHT22;12204;50.600;4.608;2023-07-13T06:54:18;26.90;62.50
22416;DHT22;12204;50.600;4.608;2023-07-13T06:59:23;26.90;62.40
22416;DHT22;12204;50.600;4.608;2023-07-13T07:04:27;26.90;62.40
22416;DHT22;12204;50.600;4.608;2023-07-13T07:09:30;26.90;62.50
22416;DHT22;12204;50.600;4.608;2023-07-13T07:14:38;26.90;62.40
22416;DHT22;12204;50.600;4.608;2023-07-13T07:19:41;26.90;62.20
22416;DHT22;12204;50.600;4.608;2023-07-13T07:24:45;26.90;62.20
22416;DHT22;12204;50.600;4.608;2023-07-13T07:29:50;26.90;62.30
22416;DHT22;12204;50.600;4.608;2023-07-13T07:35:13;26.90;62.30
22416;DHT22;12204;50.600;4.608;2023-07-13T07:40:17;26.90;62.30
22416;DHT22;12204;50.600;4.608;2023-07-13T07:45:27;26.90;62.50
22416;DHT22;12204;50.600;4.608;2023-07-13T07:50:31;26.90;62.30
22416;DHT22;12204;50.600;4.608;2023-07-13T07:55:35;26.90;62.30
22416;DHT22;12204;50.600;4.608;2023-07-13T08:00:42;26.90;63.20
22416;DHT22;12204;50.600;4.608;2023-07-13T08:05:49;26.90;62.20
22416;DHT22;12204;50.600;4.608;2023-07-13T08:11:02;26.90;62.20
22416;DHT22;12204;50.600;4.608;2023-07-13T08:16:28;26.90;62.20
22416;DHT22;12204;50.600;4.608;2023-07-13T08:21:32;26.90;62.20
22416;DHT22;12204;50.600;4.608;2023-07-13T08:26:35;26.90;62.20
22416;DHT22;12204;50.600;4.608;2023-07-13T08:31:40;26.90;62.30
22416;DHT22;12204;50.600;4.608;2023-07-13T08:36:44;26.90;62.20
22416;DHT22;12204;50.600;4.608;2023-07-13T08:41:49;26.90;62.20
22416;DHT22;12204;50.600;4.608;2023-07-13T08:46:58;26.90;62.20
22416;DHT22;12204;50.600;4.608;2023-07-13T08:52:07;26.90;62.20
22416;DHT22;12204;50.600;4.608;2023-07-13T08:57:15;26.90;62.20
22416;DHT22;12204;50.600;4.608;2023-07-13T09:02:26;26.90;62.10
22416;DHT22;12204;50.600;4.608;2023-07-13T09:07:45;26.90;62.20
22416;DHT22;12204;50.600;4.608;2023-07-13T09:13:20;26.90;62.10
22416;DHT22;12204;50.600;4.608;2023-07-13T09:18:33;26.90;62.10
22416;DHT22;12204;50.600;4.608;2023-07-13T09:23:39;27.00;62.00
22416;DHT22;12204;50.600;4.608;2023-07-13T09:28:44;27.00;62.00
22416;DHT22;12204;50.600;4.608;2023-07-13T09:33:52;27.00;62.20
22416;DHT22;12204;50.600;4.608;2023-07-13T09:39:02;26.90;62.00
22416;DHT22;12204;50.600;4.608;2023-07-13T09:44:10;26.90;62.10
22416;DHT22;12204;50.600;4.608;2023-07-13T09:49:17;27.00;62.00
22416;DHT22;12204;50.600;4.608;2023-07-13T09:54:23;26.90;62.00
22416;DHT22;12204;50.600;4.608;2023-07-13T09:59:29;27.00;62.20
22416;DHT22;12204;50.600;4.608;2023-07-13T10:04:35;27.00;62.10
22416;DHT22;12204;50.600;4.608;2023-07-13T10:09:39;27.00;62.00
22416;DHT22;12204;50.600;4.608;2023-07-13T10:14:43;27.00;62.10
22416;DHT22;12204;50.600;4.608;2023-07-13T10:19:48;26.90;62.00
22416;DHT22;12204;50.600;4.608;2023-07-13T10:24:52;27.00;62.10
22416;DHT22;12204;50.600;4.608;2023-07-13T10:30:13;27.00;62.20
22416;DHT22;12204;50.600;4.608;2023-07-13T10:35:23;27.00;63.00
22416;DHT22;12204;50.600;4.608;2023-07-13T10:40:30;27.00;62.10
22416;DHT22;12204;50.600;4.608;2023-07-13T10:45:37;27.00;62.00
22416;DHT22;12204;50.600;4.608;2023-07-13T10:50:45;27.00;62.00
22416;DHT22;12204;50.600;4.608;2023-07-13T10:55:59;27.00;62.00
22416;DHT22;12204;50.600;4.608;2023-07-13T11:01:08;27.00;61.90
22416;DHT22;12204;50.600;4.608;2023-07-13T11:06:17;27.00;61.90
22416;DHT22;12204;50.600;4.608;2023-07-13T11:11:37;27.00;61.80
22416;DHT22;12204;50.600;4.608;2023-07-13T11:16:46;27.00;61.70
22416;DHT22;12204;50.600;4.608;2023-07-13T11:22:12;27.00;61.70
22416;DHT22;12204;50.600;4.608;2023-07-13T11:27:27;27.00;61.80
22416;DHT22;12204;50.600;4.608;2023-07-13T11:32:41;27.00;61.80
22416;DHT22;12204;50.600;4.608;2023-07-13T11:37:46;27.00;61.60
22416;DHT22;12204;50.600;4.608;2023-07-13T11:42:50;27.00;61.60
22416;DHT22;12204;50.600;4.608;2023-07-13T11:47:54;27.00;61.60
22416;DHT22;12204;50.600;4.608;2023-07-13T11:53:00;27.00;61.60
22416;DHT22;12204;50.600;4.608;2023-07-13T11:58:07;27.00;61.50
22416;DHT22;12204;50.600;4.608;2023-07-13T12:03:21;27.00;61.30
22416;DHT22;12204;50.600;4.608;2023-07-13T12:08:28;27.00;61.30
22416;DHT22;12204;50.600;4.608;2023-07-13T12:13:37;27.00;61.30
22416;DHT22;12204;50.600;4.608;2023-07-13T12:18:43;27.00;61.30
22416;DHT22;12204;50.600;4.608;2023-07-13T12:23:51;27.00;61.10
22416;DHT22;12204;50.600;4.608;2023-07-13T12:28:56;27.00;61.00
22416;DHT22;12204;50.600;4.608;2023-07-13T12:34:06;27.00;61.10
22416;DHT22;12204;50.600;4.608;2023-07-13T12:39:18;27.10;60.90
22416;DHT22;12204;50.600;4.608;2023-07-13T12:44:27;27.10;60.70
22416;DHT22;12204;50.600;4.608;2023-07-13T12:49:33;27.00;60.80
22416;DHT22;12204;50.600;4.608;2023-07-13T12:54:39;27.10;60.60
22416;DHT22;12204;50.600;4.608;2023-07-13T12:59:56;27.10;60.60
22416;DHT22;12204;50.600;4.608;2023-07-13T13:05:00;27.10;60.50
22416;DHT22;12204;50.600;4.608;2023-07-13T13:10:12;27.10;60.60
22416;DHT22;12204;50.600;4.608;2023-07-13T13:15:16;27.10;60.70
22416;DHT22;12204;50.600;4.608;2023-07-13T13:20:21;27.00;60.60
22416;DHT22;12204;50.600;4.608;2023-07-13T13:25:26;27.00;60.60
22416;DHT22;12204;50.600;4.608;2023-07-13T13:30:30;27.10;60.60
22416;DHT22;12204;50.600;4.608;2023-07-13T13:35:33;27.10;60.50
22416;DHT22;12204;50.600;4.608;2023-07-13T13:40:38;27.10;60.40
22416;DHT22;12204;50.600;4.608;2023-07-13T13:45:41;27.10;60.40
22416;DHT22;12204;50.600;4.608;2023-07-13T13:50:45;27.10;60.40
22416;DHT22;12204;50.600;4.608;2023-07-13T13:55:53;27.10;60.20
22416;DHT22;12204;50.600;4.608;2023-07-13T14:00:56;27.10;60.30
22416;DHT22;12204;50.600;4.608;2023-07-13T14:06:00;27.10;60.40
22416;DHT22;12204;50.600;4.608;2023-07-13T14:11:05;27.10;60.20
22416;DHT22;12204;50.600;4.608;2023-07-13T14:16:12;27.10;60.30
22416;DHT22;12204;50.600;4.608;2023-07-13T14:21:21;27.10;60.10
22416;DHT22;12204;50.600;4.608;2023-07-13T14:26:29;27.20;60.00
22416;DHT22;12204;50.600;4.608;2023-07-13T14:31:33;27.30;60.00
22416;DHT22;12204;50.600;4.608;2023-07-13T14:36:39;27.30;60.00
22416;DHT22;12204;50.600;4.608;2023-07-13T14:41:46;27.30;60.00
22416;DHT22;12204;50.600;4.608;2023-07-13T14:46:53;27.30;60.00
22416;DHT22;12204;50.600;4.608;2023-07-13T14:51:57;27.30;60.10
22416;DHT22;12204;50.600;4.608;2023-07-13T14:57:04;27.30;60.20
22416;DHT22;12204;50.600;4.608;2023-07-13T15:02:16;27.30;60.20
22416;DHT22;12204;50.600;4.608;2023-07-13T15:07:22;27.40;60.20
22416;DHT22;12204;50.600;4.608;2023-07-13T15:12:27;27.40;60.20
22416;DHT22;12204;50.600;4.608;2023-07-13T15:17:36;27.40;60.30
22416;DHT22;12204;50.600;4.608;2023-07-13T15:22:41;27.40;60.20
22416;DHT22;12204;50.600;4.608;2023-07-13T15:27:47;27.40;60.10
22416;DHT22;12204;50.600;4.608;2023-07-13T15:32:51;27.50;60.20
22416;DHT22;12204;50.600;4.608;2023-07-13T15:37:54;27.50;60.30
22416;DHT22;12204;50.600;4.608;2023-07-13T15:43:00;27.60;60.10
22416;DHT22;12204;50.600;4.608;2023-07-13T15:48:12;27.70;59.90
22416;DHT22;12204;50.600;4.608;2023-07-13T15:53:26;27.70;59.80
22416;DHT22;12204;50.600;4.608;2023-07-13T15:58:34;27.80;59.80
22416;DHT22;12204;50.600;4.608;2023-07-13T16:03:38;27.80;59.70
22416;DHT22;12204;50.600;4.608;2023-07-13T16:08:42;27.90;59.50
22416;DHT22;12204;50.600;4.608;2023-07-13T16:13:48;27.80;59.60
22416;DHT22;12204;50.600;4.608;2023-07-13T16:18:58;27.80;60.20
22416;DHT22;12204;50.600;4.608;2023-07-13T16:24:03;27.80;59.60
22416;DHT22;12204;50.600;4.608;2023-07-13T16:29:13;27.90;59.40
22416;DHT22;12204;50.600;4.608;2023-07-13T16:34:19;27.90;59.50
22416;DHT22;12204;50.600;4.608;2023-07-13T16:39:23;27.90;59.30
22416;DHT22;12204;50.600;4.608;2023-07-13T16:44:32;27.90;59.30
22416;DHT22;12204;50.600;4.608;2023-07-13T16:49:37;28.00;59.20
22416;DHT22;12204;50.600;4.608;2023-07-13T16:54:41;28.00;59.30
22416;DHT22;12204;50.600;4.608;2023-07-13T16:59:46;28.00;59.20
22416;DHT22;12204;50.600;4.608;2023-07-13T17:04:50;27.90;59.20
22416;DHT22;12204;50.600;4.608;2023-07-13T17:09:54;27.90;59.20
22416;DHT22;12204;50.600;4.608;2023-07-13T17:15:01;27.90;59.20
22416;DHT22;12204;50.600;4.608;2023-07-13T17:20:09;28.00;59.40
22416;DHT22;12204;50.600;4.608;2023-07-13T17:25:20;28.00;59.30
22416;DHT22;12204;50.600;4.608;2023-07-13T17:30:28;27.90;59.40
22416;DHT22;12204;50.600;4.608;2023-07-13T17:35:34;27.90;59.40
22416;DHT22;12204;50.600;4.608;2023-07-13T17:40:38;27.90;59.50
22416;DHT22;12204;50.600;4.608;2023-07-13T17:45:43;27.90;59.60
22416;DHT22;12204;50.600;4.608;2023-07-13T17:50:47;27.90;59.80
22416;DHT22;12204;50.600;4.608;2023-07-13T17:55:51;27.80;59.70
22416;DHT22;12204;50.600;4.608;2023-07-13T18:00:57;27.80;59.80
22416;DHT22;12204;50.600;4.608;2023-07-13T18:06:02;27.80;59.70
22416;DHT22;12204;50.600;4.608;2023-07-13T18:11:09;27.80;59.60
22416;DHT22;12204;50.600;4.608;2023-07-13T18:16:17;27.80;59.70
22416;DHT22;12204;50.600;4.608;2023-07-13T18:21:23;27.70;59.60
22416;DHT22;12204;50.600;4.608;2023-07-13T18:26:27;27.70;60.20
22416;DHT22;12204;50.600;4.608;2023-07-13T18:31:34;27.70;59.60
22416;DHT22;12204;50.600;4.608;2023-07-13T18:36:39;27.70;59.60
22416;DHT22;12204;50.600;4.608;2023-07-13T18:41:43;27.70;59.50
22416;DHT22;12204;50.600;4.608;2023-07-13T18:46:49;27.60;59.50
22416;DHT22;12204;50.600;4.608;2023-07-13T18:51:52;27.60;59.50
22416;DHT22;12204;50.600;4.608;2023-07-13T18:56:55;27.60;59.50
22416;DHT22;12204;50.600;4.608;2023-07-13T19:02:00;27.60;59.60
22416;DHT22;12204;50.600;4.608;2023-07-13T19:07:07;27.60;59.70
22416;DHT22;12204;50.600;4.608;2023-07-13T19:12:17;27.50;59.50
22416;DHT22;12204;50.600;4.608;2023-07-13T19:17:24;27.50;59.50
22416;DHT22;12204;50.600;4.608;2023-07-13T19:22:27;27.50;59.60
22416;DHT22;12204;50.600;4.608;2023-07-13T19:27:31;27.40;59.70
22416;DHT22;12204;50.600;4.608;2023-07-13T19:32:36;27.40;59.50
22416;DHT22;12204;50.600;4.608;2023-07-13T19:37:40;27.40;59.50
22416;DHT22;12204;50.600;4.608;2023-07-13T19:42:43;27.40;59.60
22416;DHT22;12204;50.600;4.608;2023-07-13T19:47:49;27.30;59.70
22416;DHT22;12204;50.600;4.608;2023-07-13T19:52:54;27.30;59.70
22416;DHT22;12204;50.600;4.608;2023-07-13T19:57:58;27.30;59.80
22416;DHT22;12204;50.600;4.608;2023-07-13T20:03:03;27.30;60.00
22416;DHT22;12204;50.600;4.608;2023-07-13T20:08:15;27.30;60.00
22416;DHT22;12204;50.600;4.608;2023-07-13T20:13:22;27.30;60.00
22416;DHT22;12204;50.600;4.608;2023-07-13T20:18:28;27.30;60.10
22416;DHT22;12204;50.600;4.608;2023-07-13T20:23:31;27.30;60.20
22416;DHT22;12204;50.600;4.608;2023-07-13T20:28:35;27.30;60.20
22416;DHT22;12204;50.600;4.608;2023-07-13T20:33:42;27.30;60.30
22416;DHT22;12204;50.600;4.608;2023-07-13T20:38:46;27.30;60.40
22416;DHT22;12204;50.600;4.608;2023-07-13T20:43:50;27.20;60.30
22416;DHT22;12204;50.600;4.608;2023-07-13T20:48:55;27.20;60.30
22416;DHT22;12204;50.600;4.608;2023-07-13T20:53:58;27.20;60.40
22416;DHT22;12204;50.600;4.608;2023-07-13T20:59:02;27.20;60.60
22416;DHT22;12204;50.600;4.608;2023-07-13T21:04:10;27.20;60.70
22416;DHT22;12204;50.600;4.608;2023-07-13T21:09:17;27.20;60.70
22416;DHT22;12204;50.600;4.608;2023-07-13T21:14:22;27.20;60.60
22416;DHT22;12204;50.600;4.608;2023-07-13T21:19:28;27.20;61.50
22416;DHT22;12204;50.600;4.608;2023-07-13T21:24:31;27.20;60.90
22416;DHT22;12204;50.600;4.608;2023-07-13T21:29:35;27.20;60.80
22416;DHT22;12204;50.600;4.608;2023-07-13T21:34:40;27.20;61.00
22416;DHT22;12204;50.600;4.608;2023-07-13T21:39:45;27.20;61.00
22416;DHT22;12204;50.600;4.608;2023-07-13T21:44:52;27.20;61.00
22416;DHT22;12204;50.600;4.608;2023-07-13T21:49:57;27.10;61.00
22416;DHT22;12204;50.600;4.608;2023-07-13T21:55:00;27.10;61.20
22416;DHT22;12204;50.600;4.608;2023-07-13T22:00:14;27.10;61.20
22416;DHT22;12204;50.600;4.608;2023-07-13T22:05:21;27.10;61.20
22416;DHT22;12204;50.600;4.608;2023-07-13T22:10:25;27.10;61.20
22416;DHT22;12204;50.600;4.608;2023-07-13T22:15:29;27.10;61.30
22416;DHT22;12204;50.600;4.608;2023-07-13T22:20:33;27.10;61.30
22416;DHT22;12204;50.600;4.608;2023-07-13T22:25:37;27.10;61.30
22416;DHT22;12204;50.600;4.608;2023-07-13T22:30:43;27.10;61.30
22416;DHT22;12204;50.600;4.608;2023-07-13T22:35:50;27.10;61.30
22416;DHT22;12204;50.600;4.608;2023-07-13T22:40:54;27.10;61.80
22416;DHT22;12204;50.600;4.608;2023-07-13T22:45:59;27.10;61.50
22416;DHT22;12204;50.600;4.608;2023-07-13T22:51:12;27.10;61.50
22416;DHT22;12204;50.600;4.608;2023-07-13T22:56:17;27.10;61.70
22416;DHT22;12204;50.600;4.608;2023-07-13T23:01:23;27.10;61.70
22416;DHT22;12204;50.600;4.608;2023-07-13T23:06:35;27.00;61.70
22416;DHT22;12204;50.600;4.608;2023-07-13T23:11:39;27.10;61.80
22416;DHT22;12204;50.600;4.608;2023-07-13T23:16:43;27.00;61.70
22416;DHT22;12204;50.600;4.608;2023-07-13T23:21:51;27.00;61.80
22416;DHT22;12204;50.600;4.608;2023-07-13T23:26:55;27.00;61.80
22416;DHT22;12204;50.600;4.608;2023-07-13T23:31:59;27.00;61.90
22416;DHT22;12204;50.600;4.608;2023-07-13T23:37:13;27.00;62.00
22416;DHT22;12204;50.600;4.608;2023-07-13T23:42:19;27.00;62.00
22416;DHT22;12204;50.600;4.608;2023-07-13T23:47:22;27.00;62.00
22416;DHT22;12204;50.600;4.608;2023-07-13T23:52:27;27.00;62.10
22416;DHT22;12204;50.600;4.608;2023-07-13T23:57:30;27.00;62.10
